createdAt,value
2019-04-22T00:02:11.890Z,68.56
2019-04-22T00:04:30.196Z,70.34
2019-04-22T00:06:51.722Z,71.28
2019-04-22T00:09:02.259Z,72.50
2019-04-22T00:11:21.239Z,72.16
2019-04-22T00:13:26.539Z,72.94
2019-04-22T00:15:29.463Z,71.25
2019-04-22T00:20:00.446Z,72.26
2019-04-22T00:22:08.040Z,72.83
2019-04-22T00:24:12.221Z,73.48
2019-04-22T00:26:23.963Z,72.01
2019-04-22T00:28:41.542Z,72.12
2019-04-22T00:30:40.627Z,73.36
2019-04-22T00:33:03.452Z,73.47
2019-04-22T00:35:15.202Z,73.26
2019-04-22T00:37:25.038Z,71.91
2019-04-22T00:41:42.837Z,72.82
2019-04-22T00:43:56.769Z,74.70
2019-04-22T00:46:01.125Z,74.75
2019-04-22T00:48:16.022Z,72.78
2019-04-22T00:50:26.764Z,74.15
2019-04-22T00:52:34.681Z,74.51
2019-04-22T00:54:51.260Z,75.56
2019-04-22T00:56:50.843Z,73.22
2019-04-22T00:58:59.101Z,73.93
2019-04-22T01:01:14.374Z,73.00
2019-04-22T01:03:27.453Z,73.44
2019-04-22T01:05:34.404Z,73.13
2019-04-22T01:07:44.565Z,74.36
2019-04-22T01:09:58.630Z,72.53
2019-04-22T01:11:59.119Z,73.17
2019-04-22T01:14:09.229Z,73.88
2019-04-22T01:16:24.989Z,73.07
2019-04-22T01:18:27.938Z,74.67
2019-04-22T01:21:02.195Z,71.94
2019-04-22T01:22:46.242Z,73.37
2019-04-22T01:24:57.855Z,72.12
2019-04-22T01:27:03.208Z,73.74
2019-04-22T01:29:12.667Z,72.07
2019-04-22T01:31:12.362Z,73.69
2019-04-22T01:33:28.115Z,71.23
2019-04-22T01:35:41.198Z,69.88
2019-04-22T01:37:54.177Z,69.96
2019-04-22T01:40:14.774Z,72.41
2019-04-22T01:42:18.802Z,69.06
2019-04-22T01:44:33.395Z,70.97
2019-04-22T01:46:47.630Z,69.58
2019-04-22T01:48:47.287Z,70.60
2019-04-22T01:50:54.778Z,71.36
2019-04-22T01:53:27.364Z,73.43
2019-04-22T01:57:22.937Z,75.72
2019-04-22T01:59:28.638Z,74.42
2019-04-22T02:01:53.492Z,74.08
2019-04-22T02:03:57.443Z,71.79
2019-04-22T02:06:06.934Z,70.83
2019-04-22T02:08:27.673Z,72.20
2019-04-22T02:10:30.136Z,72.84
2019-04-22T02:12:35.469Z,70.63
2019-04-22T02:16:55.870Z,72.46
2019-04-22T02:19:08.963Z,75.47
2019-04-22T02:21:09.338Z,76.62
2019-04-22T02:23:45.174Z,76.36
2019-04-22T02:25:40.986Z,74.86
2019-04-22T02:27:46.008Z,77.76
2019-04-22T02:29:54.075Z,78.02
2019-04-22T02:32:19.628Z,78.71
2019-04-22T02:36:30.074Z,75.90
2019-04-22T02:38:51.326Z,79.42
2019-04-22T02:41:10.196Z,78.38
2019-04-22T02:43:02.711Z,77.73
2019-04-22T02:45:26.650Z,78.90
2019-04-22T02:49:37.861Z,78.79
2019-04-22T02:56:05.516Z,77.67
2019-04-22T02:58:05.646Z,77.75
2019-04-22T03:00:21.592Z,76.47
2019-04-22T03:02:28.484Z,78.56
2019-04-22T03:04:37.480Z,78.60
2019-04-22T03:11:16.833Z,80.00
2019-04-22T03:13:21.387Z,78.11
2019-04-22T03:15:11.637Z,79.21
2019-04-22T03:17:36.764Z,79.43
2019-04-22T03:21:46.929Z,78.93
2019-04-22T03:24:18.026Z,79.57
2019-04-22T03:26:27.372Z,79.26
2019-04-22T03:28:18.812Z,79.55
2019-04-22T03:30:47.559Z,76.56
2019-04-22T03:33:05.472Z,77.24
2019-04-22T03:35:20.024Z,78.28
2019-04-22T03:39:28.249Z,77.95
2019-04-22T03:41:27.233Z,77.98
2019-04-22T03:43:33.787Z,78.55
2019-04-22T03:45:30.220Z,77.29
2019-04-22T03:47:53.736Z,76.36
2019-04-22T03:50:17.628Z,77.87
2019-04-22T03:54:29.841Z,78.91
2019-04-22T03:57:04.947Z,78.85
2019-04-22T03:58:28.850Z,79.19
2019-04-22T04:00:55.882Z,80.23
2019-04-22T04:02:59.565Z,79.91
2019-04-22T04:05:29.644Z,79.55
2019-04-22T04:11:39.017Z,79.32
2019-04-22T04:13:41.979Z,79.95
2019-04-22T04:15:38.370Z,79.12
2019-04-22T04:20:10.901Z,79.47
2019-04-22T04:22:35.886Z,79.67
2019-04-22T04:24:48.037Z,78.42
2019-04-22T04:31:19.553Z,79.99
2019-04-22T04:33:11.233Z,76.78
2019-04-22T04:35:23.893Z,79.12
2019-04-22T04:37:42.413Z,76.47
2019-04-22T04:39:40.518Z,75.63
2019-04-22T04:41:52.084Z,79.10
2019-04-22T04:44:11.163Z,79.11
2019-04-22T04:46:06.110Z,77.79
2019-04-22T04:48:14.453Z,78.66
2019-04-22T04:55:03.941Z,77.78
2019-04-22T04:56:46.628Z,75.73
2019-04-22T04:59:08.151Z,78.38
2019-04-22T05:03:21.217Z,78.77
2019-04-22T05:09:47.371Z,75.72
2019-04-22T05:12:01.858Z,78.37
2019-04-22T05:14:05.415Z,77.05
2019-04-22T05:16:25.100Z,78.62
2019-04-22T05:18:20.763Z,78.42
2019-04-22T05:22:43.096Z,78.63
2019-04-22T05:24:51.860Z,78.79
2019-04-22T05:27:10.869Z,78.76
2019-04-22T05:29:09.648Z,77.10
2019-04-22T05:31:27.615Z,77.68
2019-04-22T05:33:32.174Z,78.22
2019-04-22T05:35:33.296Z,77.58
2019-04-22T05:37:54.689Z,77.55
2019-04-22T05:40:04.466Z,77.75
2019-04-22T05:44:14.686Z,77.07
2019-04-22T05:46:22.525Z,77.40
2019-04-22T05:48:34.183Z,76.91
2019-04-22T05:50:37.345Z,77.65
2019-04-22T05:52:56.003Z,76.53
2019-04-22T05:55:08.281Z,77.20
2019-04-22T05:57:17.953Z,77.32
2019-04-22T05:59:24.433Z,76.60
2019-04-22T06:01:45.110Z,76.99
2019-04-22T06:03:50.899Z,76.68
2019-04-22T06:06:00.802Z,76.50
2019-04-22T06:08:08.265Z,77.18
2019-04-22T06:10:21.325Z,76.19
2019-04-22T06:12:23.387Z,76.23
2019-04-22T06:14:31.101Z,75.68
2019-04-22T06:16:50.250Z,76.03
2019-04-22T06:19:02.818Z,75.87
2019-04-22T06:21:11.548Z,75.62
2019-04-22T06:23:30.699Z,75.19
2019-04-22T06:25:57.830Z,75.42
2019-04-22T06:27:41.633Z,75.80
2019-04-22T06:29:51.321Z,74.95
2019-04-22T06:32:17.864Z,74.69
2019-04-22T06:34:11.901Z,74.44
2019-04-22T06:36:38.288Z,73.85
2019-04-22T06:38:35.902Z,73.92
2019-04-22T06:40:39.142Z,73.33
2019-04-22T06:42:53.390Z,73.63
2019-04-22T06:44:57.930Z,73.17
2019-04-22T06:47:10.535Z,72.72
2019-04-22T06:49:18.859Z,72.98
2019-04-22T06:51:30.982Z,73.20
2019-04-22T06:53:34.643Z,72.20
2019-04-22T06:55:45.826Z,72.70
2019-04-22T06:57:51.101Z,72.58
2019-04-22T07:00:05.285Z,72.78
2019-04-22T07:02:18.055Z,71.97
2019-04-22T07:04:22.257Z,71.84
2019-04-22T07:06:40.110Z,72.33
2019-04-22T07:10:50.453Z,71.88
2019-04-22T07:13:01.231Z,71.44
2019-04-22T07:15:24.387Z,71.49
2019-04-22T07:17:22.147Z,71.48
2019-04-22T07:19:33.629Z,71.35
2019-04-22T07:21:57.581Z,71.37
2019-04-22T07:24:03.040Z,70.86
2019-04-22T07:25:58.462Z,70.77
2019-04-22T07:28:11.183Z,70.07
2019-04-22T07:30:22.031Z,70.07
2019-04-22T07:32:54.919Z,69.87
2019-04-22T07:34:40.751Z,69.70
2019-04-22T07:36:59.002Z,69.31
2019-04-22T07:38:57.240Z,69.86
2019-04-22T07:41:05.848Z,66.82
2019-04-22T07:45:29.572Z,65.67
2019-04-22T07:47:38.074Z,67.37
2019-04-22T07:51:58.796Z,65.85
2019-04-22T07:54:06.501Z,64.47
2019-04-22T07:56:18.421Z,64.33
2019-04-22T07:58:26.106Z,65.34
2019-04-22T08:00:38.683Z,65.62
2019-04-22T08:07:10.726Z,64.65
2019-04-22T08:09:20.313Z,65.34
2019-04-22T08:11:37.650Z,64.63
2019-04-22T08:15:48.533Z,64.94
2019-04-22T08:20:05.549Z,64.81
2019-04-22T08:22:11.861Z,63.97
2019-04-22T08:24:23.886Z,64.48
2019-04-22T08:26:36.636Z,63.31
2019-04-22T08:28:50.143Z,61.91
2019-04-22T08:30:55.079Z,61.12
2019-04-22T08:33:04.077Z,60.31
2019-04-22T08:35:18.720Z,58.57
2019-04-22T08:39:31.158Z,58.37
2019-04-22T08:41:37.547Z,59.15
2019-04-22T08:43:57.335Z,60.01
2019-04-22T08:46:06.182Z,58.86
2019-04-22T08:48:21.074Z,60.26
2019-04-22T08:50:25.512Z,61.35
2019-04-22T08:52:38.636Z,60.36
2019-04-22T08:54:44.930Z,60.12
2019-04-22T08:56:50.690Z,60.23
2019-04-22T09:01:11.229Z,57.66
2019-04-22T09:03:16.002Z,56.31
2019-04-22T09:05:52.176Z,56.29
2019-04-22T09:07:48.568Z,55.19
2019-04-22T09:09:54.081Z,54.45
2019-04-22T09:12:04.357Z,54.85
2019-04-22T09:14:11.626Z,56.10
2019-04-22T09:16:21.906Z,55.02
2019-04-22T09:18:32.936Z,54.90
2019-04-22T09:20:41.820Z,55.36
2019-04-22T09:22:48.430Z,54.36
2019-04-22T09:24:51.774Z,54.30
2019-04-22T09:27:11.263Z,54.04
2019-04-22T09:29:20.939Z,54.08
2019-04-22T09:31:24.016Z,55.19
2019-04-22T09:33:36.895Z,55.75
2019-04-22T09:42:10.751Z,54.79
2019-04-22T09:44:21.841Z,53.88
2019-04-22T09:46:39.602Z,52.74
2019-04-22T09:48:43.893Z,53.52
2019-04-22T09:50:57.327Z,54.00
2019-04-22T09:53:02.119Z,53.89
2019-04-22T09:55:12.516Z,51.82
2019-04-22T09:57:21.686Z,51.43
2019-04-22T09:59:35.295Z,51.13
2019-04-22T10:01:50.417Z,50.93
2019-04-22T10:03:56.292Z,49.02
2019-04-22T10:06:13.271Z,47.92
2019-04-22T10:08:18.557Z,48.83
2019-04-22T10:16:50.762Z,51.67
2019-04-22T10:21:19.131Z,50.67
2019-04-22T10:23:20.227Z,50.89
2019-04-22T10:25:32.720Z,51.35
2019-04-22T10:27:39.803Z,50.84
2019-04-22T10:29:53.693Z,51.51
2019-04-22T10:31:55.807Z,50.54
2019-04-22T10:33:58.475Z,50.47
2019-04-22T10:35:51.862Z,52.37
2019-04-22T10:38:00.676Z,51.50
2019-04-22T10:40:15.819Z,51.38
2019-04-22T10:42:25.221Z,51.51
2019-04-22T10:44:35.258Z,50.62
2019-04-22T10:46:44.354Z,51.36
2019-04-22T10:48:52.756Z,52.22
2019-04-22T10:51:01.032Z,51.85
2019-04-22T10:53:09.123Z,49.42
2019-04-22T10:55:17.376Z,49.15
2019-04-22T10:57:25.639Z,49.71
2019-04-22T10:59:34.389Z,50.71
2019-04-22T11:01:42.423Z,50.89
2019-04-22T11:03:51.124Z,50.14
2019-04-22T11:05:59.406Z,50.73
2019-04-22T11:08:08.500Z,52.46
2019-04-22T11:10:34.666Z,51.18
2019-04-22T11:12:30.810Z,50.61
2019-04-22T11:14:40.159Z,50.28
2019-04-22T11:16:47.694Z,47.56
2019-04-22T11:18:55.882Z,47.98
2019-04-22T11:21:05.283Z,48.97
2019-04-22T11:23:14.386Z,48.49
2019-04-22T11:25:23.610Z,46.78
2019-04-22T11:27:32.926Z,47.46
2019-04-22T11:29:41.541Z,46.63
2019-04-22T11:31:50.442Z,46.13
2019-04-22T11:33:58.623Z,48.10
2019-04-22T11:36:07.957Z,47.70
2019-04-22T11:38:17.288Z,46.90
2019-04-22T11:40:34.831Z,47.19
2019-04-22T11:42:36.317Z,44.66
2019-04-22T11:44:45.407Z,44.45
2019-04-22T11:46:53.694Z,43.94
2019-04-22T11:49:01.724Z,43.89
2019-04-22T11:51:09.775Z,43.45
2019-04-22T11:53:18.657Z,41.89
2019-04-22T11:55:26.933Z,41.85
2019-04-22T11:57:35.031Z,42.02
2019-04-22T11:59:43.072Z,42.80
2019-04-22T12:01:52.812Z,42.44
2019-04-22T12:04:02.170Z,40.83
2019-04-22T12:06:10.390Z,40.55
2019-04-22T12:08:18.743Z,42.35
2019-04-22T12:10:34.684Z,43.59
2019-04-22T12:12:36.999Z,40.78
2019-04-22T12:14:45.879Z,41.56
2019-04-22T12:16:55.195Z,43.45
2019-04-22T12:19:03.209Z,43.56
2019-04-22T12:21:11.028Z,44.53
2019-04-22T12:23:18.989Z,44.12
2019-04-22T12:25:34.842Z,42.49
2019-04-22T12:27:38.888Z,42.49
2019-04-22T12:29:47.182Z,41.90
2019-04-22T12:31:55.614Z,42.10
2019-04-22T12:34:05.986Z,43.91
2019-04-22T12:36:14.951Z,44.77
2019-04-22T12:38:24.092Z,44.00
2019-04-22T12:40:40.790Z,42.86
2019-04-22T12:42:42.150Z,41.70
2019-04-22T12:44:51.182Z,43.13
2019-04-22T12:47:00.733Z,41.30
2019-04-22T12:49:09.906Z,41.79
2019-04-22T12:51:18.881Z,42.18
2019-04-22T12:53:28.040Z,41.53
2019-04-22T12:55:37.474Z,40.14
2019-04-22T12:57:46.452Z,39.20
2019-04-22T12:59:55.428Z,39.28
2019-04-22T13:02:03.246Z,39.34
2019-04-22T13:04:15.304Z,41.24
2019-04-22T13:06:21.734Z,41.09
2019-04-22T13:08:29.859Z,42.35
2019-04-22T13:10:45.627Z,41.22
2019-04-22T13:12:47.219Z,40.71
2019-04-22T13:14:55.111Z,40.88
2019-04-22T13:17:04.024Z,41.67
2019-04-22T13:19:14.958Z,42.12
2019-04-22T13:21:22.761Z,43.04
2019-04-22T13:23:31.769Z,43.17
2019-04-22T13:25:40.903Z,42.94
2019-04-22T13:27:49.169Z,42.64
2019-04-22T13:29:57.407Z,43.35
2019-04-22T13:32:06.850Z,43.95
2019-04-22T13:34:21.630Z,43.40
2019-04-22T13:36:27.650Z,42.62
2019-04-22T13:38:35.376Z,42.65
2019-04-22T13:40:57.880Z,42.74
2019-04-22T13:42:53.521Z,41.68
2019-04-22T13:45:01.973Z,39.96
2019-04-22T13:47:27.940Z,40.43
2019-04-22T13:49:49.415Z,39.72
2019-04-22T13:52:02.371Z,39.09
2019-04-22T13:54:36.855Z,39.48
2019-04-22T13:56:26.310Z,39.50
2019-04-22T13:58:14.599Z,39.42
2019-04-22T14:00:13.802Z,39.54
2019-04-22T14:02:32.731Z,41.06
2019-04-22T14:04:42.935Z,39.95
2019-04-22T14:06:52.535Z,40.27
2019-04-22T14:09:01.219Z,40.86
2019-04-22T14:11:16.805Z,40.73
2019-04-22T14:13:21.670Z,40.13
2019-04-22T14:15:31.975Z,40.60
2019-04-22T14:17:41.027Z,40.90
2019-04-22T14:19:48.903Z,40.70
2019-04-22T14:21:57.800Z,41.34
2019-04-22T14:24:07.360Z,41.62
2019-04-22T14:26:15.479Z,43.06
2019-04-22T14:28:25.136Z,42.89
2019-04-22T14:30:34.572Z,43.08
2019-04-22T14:32:43.989Z,42.82
2019-04-22T14:34:53.201Z,42.16
2019-04-22T14:37:01.494Z,40.90
2019-04-22T14:39:12.198Z,40.37
2019-04-22T14:41:35.831Z,40.51
2019-04-22T14:44:24.523Z,40.66
2019-04-22T14:46:08.067Z,40.73
2019-04-22T14:48:11.012Z,40.40
2019-04-22T14:50:17.861Z,39.75
2019-04-22T14:52:33.174Z,40.62
2019-04-22T14:54:34.577Z,39.78
2019-04-22T14:56:28.680Z,40.07
2019-04-22T14:58:37.398Z,40.88
2019-04-22T15:00:45.937Z,40.24
2019-04-22T15:02:55.463Z,39.86
2019-04-22T15:05:03.821Z,39.77
2019-04-22T15:07:12.758Z,39.48
2019-04-22T15:09:21.845Z,39.29
2019-04-22T15:11:41.809Z,38.97
2019-04-22T15:13:39.196Z,39.81
2019-04-22T15:16:03.015Z,39.69
2019-04-22T15:18:33.468Z,40.26
2019-04-22T15:20:54.301Z,39.84
2019-04-22T15:23:02.462Z,40.00
2019-04-22T15:25:10.619Z,39.47
2019-04-22T15:27:31.123Z,40.27
2019-04-22T15:29:39.251Z,40.63
2019-04-22T15:31:47.481Z,40.51
2019-04-22T15:33:56.424Z,40.21
2019-04-22T15:36:05.719Z,41.06
2019-04-22T15:38:15.416Z,41.00
2019-04-22T15:40:24.734Z,42.13
2019-04-22T15:42:37.732Z,42.33
2019-04-22T15:44:44.189Z,41.09
2019-04-22T15:46:53.193Z,41.00
2019-04-22T15:49:02.150Z,40.37
2019-04-22T15:51:10.949Z,41.21
2019-04-22T15:53:20.047Z,41.57
2019-04-22T15:55:29.119Z,42.47
2019-04-22T15:57:39.450Z,43.37
2019-04-22T16:00:02.308Z,44.05
2019-04-22T16:02:00.124Z,43.72
2019-04-22T16:04:06.430Z,44.12
2019-04-22T16:06:15.665Z,44.16
2019-04-22T16:08:24.698Z,43.47
2019-04-22T16:10:33.796Z,43.92
2019-04-22T16:12:53.046Z,43.28
2019-04-22T16:14:56.495Z,43.66
2019-04-22T16:17:01.264Z,44.05
2019-04-22T16:19:09.657Z,44.43
2019-04-22T16:21:30.180Z,44.42
2019-04-22T16:23:56.545Z,43.94
2019-04-22T16:26:42.510Z,44.40
2019-04-22T16:28:53.737Z,43.94
2019-04-22T16:31:01.450Z,44.48
2019-04-22T16:33:10.406Z,44.40
2019-04-22T16:35:18.785Z,44.46
2019-04-22T16:37:26.790Z,44.09
2019-04-22T16:39:36.451Z,43.84
2019-04-22T16:41:46.575Z,44.31
2019-04-22T16:43:56.231Z,44.46
2019-04-22T16:46:05.637Z,44.98
2019-04-22T16:48:13.769Z,44.79
2019-04-22T16:50:23.031Z,44.67
2019-04-22T16:52:32.190Z,44.91
2019-04-22T16:54:48.510Z,45.43
2019-04-22T16:56:57.559Z,45.85
2019-04-22T16:59:06.667Z,45.39
2019-04-22T17:01:36.722Z,45.30
2019-04-22T17:04:04.866Z,46.00
2019-04-22T17:06:32.259Z,46.76
2019-04-22T17:08:40.443Z,46.53
2019-04-22T17:10:49.479Z,46.25
2019-04-22T17:13:03.501Z,46.26
2019-04-22T17:15:12.331Z,46.47
2019-04-22T17:17:20.239Z,47.10
2019-04-22T17:19:29.194Z,47.67
2019-04-22T17:21:37.575Z,47.65
2019-04-22T17:23:45.787Z,47.05
2019-04-22T17:25:54.432Z,47.05
2019-04-22T17:28:03.560Z,47.37
2019-04-22T17:30:12.470Z,47.74
2019-04-22T17:32:23.049Z,47.81
2019-04-22T17:34:31.814Z,47.90
2019-04-22T17:36:40.531Z,48.61
2019-04-22T17:38:59.956Z,48.08
2019-04-22T17:41:11.651Z,47.25
2019-04-22T17:43:36.152Z,46.76
2019-04-22T17:45:55.865Z,46.05
2019-04-22T17:48:38.246Z,46.13
2019-04-22T17:50:44.435Z,45.93
2019-04-22T17:53:03.592Z,45.19
2019-04-22T17:55:02.707Z,44.81
2019-04-22T17:57:09.979Z,44.44
2019-04-22T17:59:23.346Z,44.07
2019-04-22T18:01:32.617Z,44.24
2019-04-22T18:03:32.500Z,45.40
2019-04-22T18:05:43.793Z,44.98
2019-04-22T18:08:09.698Z,44.28
2019-04-22T18:10:27.543Z,44.58
2019-04-22T18:12:36.206Z,43.87
2019-04-22T18:14:44.857Z,44.22
2019-04-22T18:16:43.006Z,44.36
2019-04-22T18:18:52.891Z,44.43
2019-04-22T18:20:57.454Z,44.28
2019-04-22T18:23:03.631Z,44.36
2019-04-22T18:25:14.886Z,44.11
2019-04-22T18:27:47.270Z,43.96
2019-04-22T18:29:43.418Z,44.64
2019-04-22T18:31:44.159Z,44.51
2019-04-22T18:33:59.449Z,44.37
2019-04-22T18:36:09.973Z,44.83
2019-04-22T18:38:32.999Z,44.56
2019-04-22T18:40:30.819Z,44.63
2019-04-22T18:42:45.776Z,44.00
2019-04-22T18:44:55.556Z,43.61
2019-04-22T18:47:01.200Z,43.69
2019-04-22T18:49:11.048Z,43.66
2019-04-22T18:51:35.232Z,43.65
2019-04-22T18:54:00.160Z,43.64
2019-04-22T18:56:19.160Z,43.16
2019-04-22T18:58:21.463Z,43.54
2019-04-22T19:00:21.298Z,44.57
2019-04-22T19:02:33.162Z,43.89
2019-04-22T19:04:53.068Z,43.45
2019-04-22T19:07:07.458Z,43.83
2019-04-22T19:09:27.341Z,43.64
2019-04-22T19:11:30.154Z,44.03
2019-04-22T19:13:56.037Z,43.49
2019-04-22T19:16:25.591Z,43.90
2019-04-22T19:20:47.857Z,43.83
2019-04-22T19:22:55.256Z,43.58
2019-04-22T19:24:54.745Z,43.85
2019-04-22T19:27:20.113Z,44.04
2019-04-22T19:29:18.639Z,43.92
2019-04-22T19:31:40.754Z,43.77
2019-04-22T19:33:34.556Z,44.17
2019-04-22T19:35:40.218Z,43.89
2019-04-22T19:37:51.944Z,43.63
2019-04-22T19:42:25.121Z,43.02
2019-04-22T19:44:26.266Z,43.77
2019-04-22T19:46:35.433Z,43.67
2019-04-22T19:48:45.715Z,43.46
2019-04-22T19:51:06.966Z,44.06
2019-04-22T19:53:03.529Z,44.29
2019-04-22T19:55:14.090Z,44.32
2019-04-22T19:57:24.930Z,44.09
2019-04-22T19:59:32.744Z,44.29
2019-04-22T20:02:00.684Z,44.30
2019-04-22T20:04:41.303Z,44.48
2019-04-22T20:06:47.872Z,44.17
2019-04-22T20:08:59.312Z,44.83
2019-04-22T20:11:12.880Z,44.44
2019-04-22T20:13:25.212Z,44.87
2019-04-22T20:15:22.636Z,44.94
2019-04-22T20:17:56.489Z,45.10
2019-04-22T20:19:50.149Z,45.62
2019-04-22T20:21:59.656Z,45.62
2019-04-22T20:23:55.926Z,45.82
2019-04-22T20:26:07.563Z,46.01
2019-04-22T20:28:29.094Z,46.13
2019-04-22T20:30:39.933Z,46.31
2019-04-22T20:32:44.617Z,46.48
2019-04-22T20:34:57.529Z,46.97
2019-04-22T20:37:10.467Z,46.99
2019-04-22T20:39:10.884Z,46.98
2019-04-22T20:41:22.807Z,47.26
2019-04-22T20:43:43.140Z,47.25
2019-04-22T20:45:46.645Z,47.33
2019-04-22T20:47:45.440Z,47.67
2019-04-22T20:50:05.509Z,47.82
2019-04-22T20:52:19.246Z,47.53
2019-04-22T20:54:22.917Z,48.17
2019-04-22T20:56:29.978Z,47.87
2019-04-22T20:58:47.965Z,47.51
2019-04-22T21:00:46.425Z,47.53
2019-04-22T21:02:51.308Z,48.25
2019-04-22T21:04:59.076Z,47.71
2019-04-22T21:07:16.853Z,47.91
2019-04-22T21:09:27.298Z,47.37
2019-04-22T21:11:38.564Z,47.10
2019-04-22T21:13:51.326Z,47.06
2019-04-22T21:16:04.524Z,47.28
2019-04-22T21:18:05.565Z,47.09
2019-04-22T21:20:28.977Z,47.04
2019-04-22T21:22:33.911Z,47.04
2019-04-22T21:24:34.745Z,47.49
2019-04-22T21:26:44.061Z,47.18
2019-04-22T21:28:56.741Z,47.30
2019-04-22T21:31:17.161Z,47.62
2019-04-22T21:33:16.291Z,47.15
2019-04-22T21:35:47.517Z,47.35
2019-04-22T21:37:43.060Z,47.44
2019-04-22T21:39:42.099Z,47.76
2019-04-22T21:41:56.987Z,47.47
2019-04-22T21:44:12.812Z,47.41
2019-04-22T21:46:20.770Z,47.03
2019-04-22T21:48:37.172Z,47.24
2019-04-22T21:52:54.775Z,47.41
2019-04-22T21:55:08.692Z,47.84
2019-04-22T21:57:24.173Z,47.50
2019-04-22T21:59:30.693Z,47.55
2019-04-22T22:04:04.765Z,47.59
2019-04-22T22:06:02.967Z,47.98
2019-04-22T22:08:27.324Z,47.67
2019-04-22T22:10:34.487Z,47.41
2019-04-22T22:12:40.790Z,47.57
2019-04-22T22:14:51.332Z,47.90
2019-04-22T22:16:53.399Z,48.01
2019-04-22T22:19:11.719Z,47.30
2019-04-22T22:21:34.917Z,47.37
2019-04-22T22:23:34.526Z,47.83
2019-04-22T22:25:33.706Z,47.70
2019-04-22T22:27:44.374Z,47.53
2019-04-22T22:30:29.390Z,47.19
2019-04-22T22:32:13.278Z,47.27
2019-04-22T22:34:19.091Z,47.01
2019-04-22T22:36:20.727Z,47.04
2019-04-22T22:38:31.194Z,47.16
2019-04-22T22:40:27.653Z,47.38
2019-04-22T22:42:38.680Z,47.79
2019-04-22T22:44:46.759Z,47.45
2019-04-22T22:47:08.598Z,48.02
2019-04-22T22:49:23.397Z,47.61
2019-04-22T22:51:39.605Z,47.18
2019-04-22T22:53:46.402Z,47.84
2019-04-22T22:55:46.381Z,47.49
2019-04-22T22:58:01.331Z,47.50
2019-04-22T23:00:09.709Z,47.08
2019-04-22T23:02:15.682Z,46.93
2019-04-22T23:06:38.280Z,47.30
2019-04-22T23:08:51.870Z,46.61
2019-04-22T23:11:00.945Z,47.47
2019-04-22T23:13:06.882Z,48.03
2019-04-22T23:15:12.034Z,47.13
2019-04-22T23:17:10.013Z,47.06
2019-04-22T23:19:13.586Z,46.60
2019-04-22T23:21:29.305Z,46.69
2019-04-22T23:23:53.010Z,46.51
2019-04-22T23:26:02.568Z,46.39
2019-04-22T23:28:26.595Z,46.47
2019-04-22T23:30:44.590Z,46.88
2019-04-22T23:33:05.810Z,46.21
2019-04-22T23:35:22.669Z,46.18
2019-04-22T23:37:39.398Z,46.17
2019-04-22T23:39:56.548Z,46.12
2019-04-22T23:42:20.885Z,46.40
2019-04-22T23:44:14.326Z,46.63
2019-04-22T23:46:19.004Z,46.23
2019-04-22T23:48:24.579Z,44.81
2019-04-22T23:50:37.566Z,44.64
2019-04-22T23:52:53.318Z,44.42
2019-04-22T23:55:06.571Z,44.68
2019-04-22T23:57:08.817Z,44.63
2019-04-22T23:59:37.942Z,44.72
